sensor_id;sensor_type;location;lat;lon;timestamp;temperature;humidity
56256;DHT22;57229;51.432;-2.598;2023-09-12T00:00:53;18.70;99.90
56256;DHT22;57229;51.432;-2.598;2023-09-12T00:03:20;18.80;99.90
56256;DHT22;57229;51.432;-2.598;2023-09-12T00:05:54;18.80;99.90
56256;DHT22;57229;51.432;-2.598;2023-09-12T00:08:20;18.90;99.90
56256;DHT22;57229;51.432;-2.598;2023-09-12T00:10:45;18.90;99.90
56256;DHT22;57229;51.432;-2.598;2023-09-12T00:13:11;18.90;99.90
56256;DHT22;57229;51.432;-2.598;2023-09-12T00:15:37;18.90;99.90
56256;DHT22;57229;51.432;-2.598;2023-09-12T00:18:02;19.00;99.90
56256;DHT22;57229;51.432;-2.598;2023-09-12T00:20:28;18.90;99.90
56256;DHT22;57229;51.432;-2.598;2023-09-12T00:22:54;18.90;99.90
56256;DHT22;57229;51.432;-2.598;2023-09-12T00:25:20;18.80;99.90
56256;DHT22;57229;51.432;-2.598;2023-09-12T00:27:46;18.80;99.90
56256;DHT22;57229;51.432;-2.598;2023-09-12T00:30:14;18.80;99.90
56256;DHT22;57229;51.432;-2.598;2023-09-12T00:32:39;18.70;99.90
56256;DHT22;57229;51.432;-2.598;2023-09-12T00:35:05;18.70;99.90
56256;DHT22;57229;51.432;-2.598;2023-09-12T00:37:31;18.70;99.90
56256;DHT22;57229;51.432;-2.598;2023-09-12T00:39:56;18.80;99.90
56256;DHT22;57229;51.432;-2.598;2023-09-12T00:42:25;18.80;99.90
56256;DHT22;57229;51.432;-2.598;2023-09-12T00:44:51;18.80;99.90
56256;DHT22;57229;51.432;-2.598;2023-09-12T00:47:16;18.80;99.90
56256;DHT22;57229;51.432;-2.598;2023-09-12T00:49:43;18.80;99.90
56256;DHT22;57229;51.432;-2.598;2023-09-12T00:52:10;18.80;99.90
56256;DHT22;57229;51.432;-2.598;2023-09-12T00:54:37;18.80;99.90
56256;DHT22;57229;51.432;-2.598;2023-09-12T00:57:03;18.80;99.90
56256;DHT22;57229;51.432;-2.598;2023-09-12T00:59:29;18.80;99.90
56256;DHT22;57229;51.432;-2.598;2023-09-12T01:01:54;18.80;99.90
56256;DHT22;57229;51.432;-2.598;2023-09-12T01:04:20;18.90;99.90
56256;DHT22;57229;51.432;-2.598;2023-09-12T01:06:46;18.90;99.90
56256;DHT22;57229;51.432;-2.598;2023-09-12T01:09:13;18.90;99.90
56256;DHT22;57229;51.432;-2.598;2023-09-12T01:11:40;18.90;99.90
56256;DHT22;57229;51.432;-2.598;2023-09-12T01:14:06;18.90;99.90
56256;DHT22;57229;51.432;-2.598;2023-09-12T01:16:31;18.90;99.90
56256;DHT22;57229;51.432;-2.598;2023-09-12T01:18:57;18.90;99.90
56256;DHT22;57229;51.432;-2.598;2023-09-12T01:21:56;18.90;99.90
56256;DHT22;57229;51.432;-2.598;2023-09-12T01:27:22;19.00;99.90
56256;DHT22;57229;51.432;-2.598;2023-09-12T01:29:55;19.00;99.90
56256;DHT22;57229;51.432;-2.598;2023-09-12T01:32:21;19.00;99.90
56256;DHT22;57229;51.432;-2.598;2023-09-12T01:34:50;19.10;99.90
56256;DHT22;57229;51.432;-2.598;2023-09-12T01:37:17;19.00;99.90
56256;DHT22;57229;51.432;-2.598;2023-09-12T01:39:42;19.10;99.90
56256;DHT22;57229;51.432;-2.598;2023-09-12T01:42:14;19.20;99.90
56256;DHT22;57229;51.432;-2.598;2023-09-12T01:44:43;19.20;99.90
56256;DHT22;57229;51.432;-2.598;2023-09-12T01:47:10;19.30;99.90
56256;DHT22;57229;51.432;-2.598;2023-09-12T01:49:38;19.20;99.90
56256;DHT22;57229;51.432;-2.598;2023-09-12T01:52:05;19.20;99.90
56256;DHT22;57229;51.432;-2.598;2023-09-12T01:54:32;19.30;99.90
56256;DHT22;57229;51.432;-2.598;2023-09-12T01:56:59;19.40;99.90
56256;DHT22;57229;51.432;-2.598;2023-09-12T01:59:25;19.40;99.90
56256;DHT22;57229;51.432;-2.598;2023-09-12T02:01:51;19.40;99.90
56256;DHT22;57229;51.432;-2.598;2023-09-12T02:04:17;19.40;99.90
56256;DHT22;57229;51.432;-2.598;2023-09-12T02:06:42;19.40;99.90
56256;DHT22;57229;51.432;-2.598;2023-09-12T02:09:08;19.30;99.90
56256;DHT22;57229;51.432;-2.598;2023-09-12T02:11:33;19.20;99.90
56256;DHT22;57229;51.432;-2.598;2023-09-12T02:13:59;19.20;99.90
56256;DHT22;57229;51.432;-2.598;2023-09-12T02:16:24;19.20;99.90
56256;DHT22;57229;51.432;-2.598;2023-09-12T02:18:50;19.10;99.90
56256;DHT22;57229;51.432;-2.598;2023-09-12T02:21:16;19.10;99.90
56256;DHT22;57229;51.432;-2.598;2023-09-12T02:23:42;18.90;99.90
56256;DHT22;57229;51.432;-2.598;2023-09-12T02:26:07;18.90;99.90
56256;DHT22;57229;51.432;-2.598;2023-09-12T02:28:33;18.80;99.90
56256;DHT22;57229;51.432;-2.598;2023-09-12T02:30:59;18.70;99.90
56256;DHT22;57229;51.432;-2.598;2023-09-12T02:33:24;18.60;99.90
56256;DHT22;57229;51.432;-2.598;2023-09-12T02:35:50;18.60;99.90
56256;DHT22;57229;51.432;-2.598;2023-09-12T02:38:17;18.40;99.90
56256;DHT22;57229;51.432;-2.598;2023-09-12T02:40:43;18.40;99.90
56256;DHT22;57229;51.432;-2.598;2023-09-12T02:43:08;18.30;99.90
56256;DHT22;57229;51.432;-2.598;2023-09-12T02:45:34;18.30;99.90
56256;DHT22;57229;51.432;-2.598;2023-09-12T02:48:00;18.30;99.90
56256;DHT22;57229;51.432;-2.598;2023-09-12T02:50:25;18.30;99.90
56256;DHT22;57229;51.432;-2.598;2023-09-12T02:52:51;18.30;99.90
56256;DHT22;57229;51.432;-2.598;2023-09-12T02:55:16;18.20;99.90
56256;DHT22;57229;51.432;-2.598;2023-09-12T02:57:42;18.20;99.90
56256;DHT22;57229;51.432;-2.598;2023-09-12T03:00:08;18.20;99.90
56256;DHT22;57229;51.432;-2.598;2023-09-12T03:02:34;18.10;99.90
56256;DHT22;57229;51.432;-2.598;2023-09-12T03:05:00;18.20;99.90
56256;DHT22;57229;51.432;-2.598;2023-09-12T03:07:27;18.20;99.90
56256;DHT22;57229;51.432;-2.598;2023-09-12T03:09:52;18.10;99.90
56256;DHT22;57229;51.432;-2.598;2023-09-12T03:12:18;18.10;99.90
56256;DHT22;57229;51.432;-2.598;2023-09-12T03:14:43;18.20;99.90
56256;DHT22;57229;51.432;-2.598;2023-09-12T03:17:09;18.20;99.90
56256;DHT22;57229;51.432;-2.598;2023-09-12T03:19:35;18.20;99.90
56256;DHT22;57229;51.432;-2.598;2023-09-12T03:22:00;18.20;99.90
56256;DHT22;57229;51.432;-2.598;2023-09-12T03:24:26;18.20;99.90
56256;DHT22;57229;51.432;-2.598;2023-09-12T03:26:54;18.20;99.90
56256;DHT22;57229;51.432;-2.598;2023-09-12T03:29:19;18.20;99.90
56256;DHT22;57229;51.432;-2.598;2023-09-12T03:31:45;18.30;99.90
56256;DHT22;57229;51.432;-2.598;2023-09-12T03:34:11;18.30;99.90
56256;DHT22;57229;51.432;-2.598;2023-09-12T03:36:36;18.30;99.90
56256;DHT22;57229;51.432;-2.598;2023-09-12T03:39:03;18.30;99.90
56256;DHT22;57229;51.432;-2.598;2023-09-12T03:41:30;18.40;99.90
56256;DHT22;57229;51.432;-2.598;2023-09-12T03:43:56;18.40;99.90
56256;DHT22;57229;51.432;-2.598;2023-09-12T03:46:22;18.50;99.90
56256;DHT22;57229;51.432;-2.598;2023-09-12T03:48:48;18.50;99.90
56256;DHT22;57229;51.432;-2.598;2023-09-12T03:51:14;18.50;99.90
56256;DHT22;57229;51.432;-2.598;2023-09-12T03:53:40;18.50;99.90
56256;DHT22;57229;51.432;-2.598;2023-09-12T03:56:05;18.50;99.90
56256;DHT22;57229;51.432;-2.598;2023-09-12T03:58:31;18.50;99.90
56256;DHT22;57229;51.432;-2.598;2023-09-12T04:00:57;18.50;99.90
56256;DHT22;57229;51.432;-2.598;2023-09-12T04:03:23;18.50;99.90
56256;DHT22;57229;51.432;-2.598;2023-09-12T04:05:50;18.50;99.90
56256;DHT22;57229;51.432;-2.598;2023-09-12T04:08:16;18.50;99.90
56256;DHT22;57229;51.432;-2.598;2023-09-12T04:10:43;18.50;99.90
56256;DHT22;57229;51.432;-2.598;2023-09-12T04:13:08;18.50;99.90
56256;DHT22;57229;51.432;-2.598;2023-09-12T04:15:34;18.60;99.90
56256;DHT22;57229;51.432;-2.598;2023-09-12T04:18:00;18.60;99.90
56256;DHT22;57229;51.432;-2.598;2023-09-12T04:20:26;18.60;99.90
56256;DHT22;57229;51.432;-2.598;2023-09-12T04:22:51;18.60;99.90
56256;DHT22;57229;51.432;-2.598;2023-09-12T04:25:17;18.70;99.90
56256;DHT22;57229;51.432;-2.598;2023-09-12T04:27:45;18.70;99.90
56256;DHT22;57229;51.432;-2.598;2023-09-12T04:30:11;18.70;99.90
56256;DHT22;57229;51.432;-2.598;2023-09-12T04:32:37;18.80;99.90
56256;DHT22;57229;51.432;-2.598;2023-09-12T04:35:02;18.70;99.90
56256;DHT22;57229;51.432;-2.598;2023-09-12T04:37:28;18.80;99.90
56256;DHT22;57229;51.432;-2.598;2023-09-12T04:39:54;18.80;99.90
56256;DHT22;57229;51.432;-2.598;2023-09-12T04:42:20;18.80;99.90
56256;DHT22;57229;51.432;-2.598;2023-09-12T04:44:46;18.80;99.90
56256;DHT22;57229;51.432;-2.598;2023-09-12T04:47:12;18.90;99.90
56256;DHT22;57229;51.432;-2.598;2023-09-12T04:49:38;18.90;99.90
56256;DHT22;57229;51.432;-2.598;2023-09-12T04:52:04;18.90;99.90
56256;DHT22;57229;51.432;-2.598;2023-09-12T04:54:30;18.90;99.90
56256;DHT22;57229;51.432;-2.598;2023-09-12T04:56:55;18.90;99.90
56256;DHT22;57229;51.432;-2.598;2023-09-12T04:59:21;18.90;99.90
56256;DHT22;57229;51.432;-2.598;2023-09-12T05:01:47;18.90;99.90
56256;DHT22;57229;51.432;-2.598;2023-09-12T05:04:12;18.90;99.90
56256;DHT22;57229;51.432;-2.598;2023-09-12T05:06:38;18.80;99.90
56256;DHT22;57229;51.432;-2.598;2023-09-12T05:09:05;18.80;99.90
56256;DHT22;57229;51.432;-2.598;2023-09-12T05:11:31;18.80;99.90
56256;DHT22;57229;51.432;-2.598;2023-09-12T05:13:57;18.80;99.90
56256;DHT22;57229;51.432;-2.598;2023-09-12T05:16:22;18.80;99.90
56256;DHT22;57229;51.432;-2.598;2023-09-12T05:18:48;18.80;99.90
56256;DHT22;57229;51.432;-2.598;2023-09-12T05:21:15;18.80;99.90
56256;DHT22;57229;51.432;-2.598;2023-09-12T05:23:40;18.80;99.90
56256;DHT22;57229;51.432;-2.598;2023-09-12T05:26:06;18.80;99.90
56256;DHT22;57229;51.432;-2.598;2023-09-12T05:28:31;18.90;99.90
56256;DHT22;57229;51.432;-2.598;2023-09-12T05:30:57;18.80;99.90
56256;DHT22;57229;51.432;-2.598;2023-09-12T05:33:23;18.80;99.90
56256;DHT22;57229;51.432;-2.598;2023-09-12T05:35:48;18.80;99.90
56256;DHT22;57229;51.432;-2.598;2023-09-12T05:38:14;18.80;99.90
56256;DHT22;57229;51.432;-2.598;2023-09-12T05:40:39;18.80;99.90
56256;DHT22;57229;51.432;-2.598;2023-09-12T05:43:05;18.80;99.90
56256;DHT22;57229;51.432;-2.598;2023-09-12T05:45:30;18.80;99.90
56256;DHT22;57229;51.432;-2.598;2023-09-12T05:47:58;18.80;99.90
56256;DHT22;57229;51.432;-2.598;2023-09-12T05:50:24;18.80;99.90
56256;DHT22;57229;51.432;-2.598;2023-09-12T05:52:49;18.80;99.90
56256;DHT22;57229;51.432;-2.598;2023-09-12T05:55:16;18.70;99.90
56256;DHT22;57229;51.432;-2.598;2023-09-12T05:57:41;18.60;99.90
56256;DHT22;57229;51.432;-2.598;2023-09-12T06:00:08;18.60;99.90
56256;DHT22;57229;51.432;-2.598;2023-09-12T06:02:38;18.70;99.90
56256;DHT22;57229;51.432;-2.598;2023-09-12T06:05:04;18.70;99.90
56256;DHT22;57229;51.432;-2.598;2023-09-12T06:07:30;18.60;99.90
56256;DHT22;57229;51.432;-2.598;2023-09-12T06:09:57;18.70;99.90
56256;DHT22;57229;51.432;-2.598;2023-09-12T06:12:23;18.70;99.90
56256;DHT22;57229;51.432;-2.598;2023-09-12T06:14:49;18.70;99.90
56256;DHT22;57229;51.432;-2.598;2023-09-12T06:17:14;18.80;99.90
56256;DHT22;57229;51.432;-2.598;2023-09-12T06:19:40;18.80;99.90
56256;DHT22;57229;51.432;-2.598;2023-09-12T06:22:05;18.80;99.90
56256;DHT22;57229;51.432;-2.598;2023-09-12T06:24:31;18.80;99.90
56256;DHT22;57229;51.432;-2.598;2023-09-12T06:26:57;18.90;99.90
56256;DHT22;57229;51.432;-2.598;2023-09-12T06:29:22;18.80;99.90
56256;DHT22;57229;51.432;-2.598;2023-09-12T06:31:48;18.90;99.90
56256;DHT22;57229;51.432;-2.598;2023-09-12T06:34:14;18.90;99.90
56256;DHT22;57229;51.432;-2.598;2023-09-12T06:36:39;19.00;99.90
56256;DHT22;57229;51.432;-2.598;2023-09-12T06:39:06;19.00;99.90
56256;DHT22;57229;51.432;-2.598;2023-09-12T06:41:32;19.00;99.90
56256;DHT22;57229;51.432;-2.598;2023-09-12T06:43:58;19.10;99.90
56256;DHT22;57229;51.432;-2.598;2023-09-12T06:46:24;19.20;99.90
56256;DHT22;57229;51.432;-2.598;2023-09-12T06:48:50;19.20;99.90
56256;DHT22;57229;51.432;-2.598;2023-09-12T06:51:16;19.30;99.90
56256;DHT22;57229;51.432;-2.598;2023-09-12T06:53:42;19.30;99.90
56256;DHT22;57229;51.432;-2.598;2023-09-12T06:56:08;19.30;99.90
56256;DHT22;57229;51.432;-2.598;2023-09-12T06:58:34;19.30;99.90
56256;DHT22;57229;51.432;-2.598;2023-09-12T07:01:06;19.30;99.90
56256;DHT22;57229;51.432;-2.598;2023-09-12T07:03:32;19.20;99.90
56256;DHT22;57229;51.432;-2.598;2023-09-12T07:05:58;19.20;99.90
56256;DHT22;57229;51.432;-2.598;2023-09-12T07:08:24;19.10;99.90
56256;DHT22;57229;51.432;-2.598;2023-09-12T07:10:49;19.20;99.90
56256;DHT22;57229;51.432;-2.598;2023-09-12T07:13:15;19.10;99.90
56256;DHT22;57229;51.432;-2.598;2023-09-12T07:15:40;19.20;99.90
56256;DHT22;57229;51.432;-2.598;2023-09-12T07:18:06;19.20;99.90
56256;DHT22;57229;51.432;-2.598;2023-09-12T07:20:33;19.20;99.90
56256;DHT22;57229;51.432;-2.598;2023-09-12T07:22:59;19.20;99.90
56256;DHT22;57229;51.432;-2.598;2023-09-12T07:25:25;19.20;99.90
56256;DHT22;57229;51.432;-2.598;2023-09-12T07:27:50;19.20;99.90
56256;DHT22;57229;51.432;-2.598;2023-09-12T07:30:16;19.20;99.90
56256;DHT22;57229;51.432;-2.598;2023-09-12T07:32:42;19.30;99.90
56256;DHT22;57229;51.432;-2.598;2023-09-12T07:35:08;19.30;99.90
56256;DHT22;57229;51.432;-2.598;2023-09-12T07:37:34;19.30;99.90
56256;DHT22;57229;51.432;-2.598;2023-09-12T07:40:00;19.40;99.90
56256;DHT22;57229;51.432;-2.598;2023-09-12T07:42:26;19.40;99.90
56256;DHT22;57229;51.432;-2.598;2023-09-12T07:44:51;19.40;99.90
56256;DHT22;57229;51.432;-2.598;2023-09-12T07:47:18;19.40;99.90
56256;DHT22;57229;51.432;-2.598;2023-09-12T07:49:43;19.40;99.90
56256;DHT22;57229;51.432;-2.598;2023-09-12T07:52:09;19.50;99.90
56256;DHT22;57229;51.432;-2.598;2023-09-12T07:54:34;19.50;99.90
56256;DHT22;57229;51.432;-2.598;2023-09-12T07:57:02;19.60;99.90
56256;DHT22;57229;51.432;-2.598;2023-09-12T07:59:28;19.60;99.90
56256;DHT22;57229;51.432;-2.598;2023-09-12T08:01:54;19.50;99.90
56256;DHT22;57229;51.432;-2.598;2023-09-12T08:04:19;19.60;99.90
56256;DHT22;57229;51.432;-2.598;2023-09-12T08:06:45;19.60;99.90
56256;DHT22;57229;51.432;-2.598;2023-09-12T08:09:11;19.60;99.90
56256;DHT22;57229;51.432;-2.598;2023-09-12T08:11:36;19.60;99.90
56256;DHT22;57229;51.432;-2.598;2023-09-12T08:14:02;19.60;99.90
56256;DHT22;57229;51.432;-2.598;2023-09-12T08:16:28;19.50;99.90
56256;DHT22;57229;51.432;-2.598;2023-09-12T08:18:53;19.50;99.90
56256;DHT22;57229;51.432;-2.598;2023-09-12T08:21:19;19.60;99.90
56256;DHT22;57229;51.432;-2.598;2023-09-12T08:23:45;19.50;99.90
56256;DHT22;57229;51.432;-2.598;2023-09-12T08:26:11;19.60;99.90
56256;DHT22;57229;51.432;-2.598;2023-09-12T08:28:36;19.70;99.90
56256;DHT22;57229;51.432;-2.598;2023-09-12T08:31:02;19.80;99.90
56256;DHT22;57229;51.432;-2.598;2023-09-12T08:33:28;19.90;99.90
56256;DHT22;57229;51.432;-2.598;2023-09-12T08:35:53;20.00;99.90
56256;DHT22;57229;51.432;-2.598;2023-09-12T08:38:19;20.20;99.90
56256;DHT22;57229;51.432;-2.598;2023-09-12T08:40:48;20.20;99.90
56256;DHT22;57229;51.432;-2.598;2023-09-12T08:43:15;20.30;99.90
56256;DHT22;57229;51.432;-2.598;2023-09-12T08:45:40;20.30;99.90
56256;DHT22;57229;51.432;-2.598;2023-09-12T08:48:10;20.40;99.90
56256;DHT22;57229;51.432;-2.598;2023-09-12T08:50:36;20.40;99.90
56256;DHT22;57229;51.432;-2.598;2023-09-12T08:53:02;20.40;99.90
56256;DHT22;57229;51.432;-2.598;2023-09-12T08:55:28;20.50;99.90
56256;DHT22;57229;51.432;-2.598;2023-09-12T08:57:55;20.50;99.90
56256;DHT22;57229;51.432;-2.598;2023-09-12T09:00:22;20.50;99.90
56256;DHT22;57229;51.432;-2.598;2023-09-12T09:02:48;20.40;99.90
56256;DHT22;57229;51.432;-2.598;2023-09-12T09:05:16;20.40;99.90
56256;DHT22;57229;51.432;-2.598;2023-09-12T09:07:43;20.40;99.90
56256;DHT22;57229;51.432;-2.598;2023-09-12T09:10:16;20.60;99.90
56256;DHT22;57229;51.432;-2.598;2023-09-12T09:12:44;20.80;99.90
56256;DHT22;57229;51.432;-2.598;2023-09-12T09:15:29;21.00;99.90
56256;DHT22;57229;51.432;-2.598;2023-09-12T09:17:58;21.20;99.90
56256;DHT22;57229;51.432;-2.598;2023-09-12T09:20:30;21.40;99.90
56256;DHT22;57229;51.432;-2.598;2023-09-12T09:23:01;21.50;99.90
56256;DHT22;57229;51.432;-2.598;2023-09-12T09:25:27;21.50;99.90
56256;DHT22;57229;51.432;-2.598;2023-09-12T09:27:53;21.40;99.90
56256;DHT22;57229;51.432;-2.598;2023-09-12T09:30:42;21.40;99.90
56256;DHT22;57229;51.432;-2.598;2023-09-12T09:33:08;21.10;99.90
56256;DHT22;57229;51.432;-2.598;2023-09-12T09:35:34;20.60;99.90
56256;DHT22;57229;51.432;-2.598;2023-09-12T09:38:00;20.00;99.90
56256;DHT22;57229;51.432;-2.598;2023-09-12T09:40:26;19.30;99.90
56256;DHT22;57229;51.432;-2.598;2023-09-12T09:42:56;18.90;99.90
56256;DHT22;57229;51.432;-2.598;2023-09-12T09:45:21;18.70;99.90
56256;DHT22;57229;51.432;-2.598;2023-09-12T09:47:49;18.60;99.90
56256;DHT22;57229;51.432;-2.598;2023-09-12T09:50:16;18.50;99.90
56256;DHT22;57229;51.432;-2.598;2023-09-12T09:52:43;18.50;99.90
56256;DHT22;57229;51.432;-2.598;2023-09-12T09:55:13;18.60;99.90
56256;DHT22;57229;51.432;-2.598;2023-09-12T09:57:40;18.70;99.90
56256;DHT22;57229;51.432;-2.598;2023-09-12T10:00:06;18.90;99.90
56256;DHT22;57229;51.432;-2.598;2023-09-12T10:02:35;19.00;99.90
56256;DHT22;57229;51.432;-2.598;2023-09-12T10:05:04;19.20;99.90
56256;DHT22;57229;51.432;-2.598;2023-09-12T10:07:37;19.30;99.90
56256;DHT22;57229;51.432;-2.598;2023-09-12T10:10:04;19.40;99.90
56256;DHT22;57229;51.432;-2.598;2023-09-12T10:12:35;19.60;99.90
56256;DHT22;57229;51.432;-2.598;2023-09-12T10:15:02;20.00;99.90
56256;DHT22;57229;51.432;-2.598;2023-09-12T10:17:36;20.20;99.90
56256;DHT22;57229;51.432;-2.598;2023-09-12T10:20:03;20.40;99.90
56256;DHT22;57229;51.432;-2.598;2023-09-12T10:22:37;20.50;99.90
56256;DHT22;57229;51.432;-2.598;2023-09-12T10:25:05;20.70;99.90
56256;DHT22;57229;51.432;-2.598;2023-09-12T10:27:31;20.60;99.90
56256;DHT22;57229;51.432;-2.598;2023-09-12T10:29:58;20.50;99.90
56256;DHT22;57229;51.432;-2.598;2023-09-12T10:32:25;20.50;99.90
56256;DHT22;57229;51.432;-2.598;2023-09-12T10:34:58;20.60;99.90
56256;DHT22;57229;51.432;-2.598;2023-09-12T10:37:25;20.80;99.90
56256;DHT22;57229;51.432;-2.598;2023-09-12T10:39:53;20.90;99.90
56256;DHT22;57229;51.432;-2.598;2023-09-12T10:42:20;21.10;99.90
56256;DHT22;57229;51.432;-2.598;2023-09-12T10:44:46;21.30;99.90
56256;DHT22;57229;51.432;-2.598;2023-09-12T10:47:13;21.70;99.90
56256;DHT22;57229;51.432;-2.598;2023-09-12T10:49:39;21.90;99.90
56256;DHT22;57229;51.432;-2.598;2023-09-12T10:52:05;22.10;99.90
56256;DHT22;57229;51.432;-2.598;2023-09-12T10:54:37;22.10;99.90
56256;DHT22;57229;51.432;-2.598;2023-09-12T10:57:10;22.10;99.90
56256;DHT22;57229;51.432;-2.598;2023-09-12T11:02:29;22.50;99.90
56256;DHT22;57229;51.432;-2.598;2023-09-12T11:04:58;22.60;99.90
56256;DHT22;57229;51.432;-2.598;2023-09-12T11:07:44;22.60;99.90
56256;DHT22;57229;51.432;-2.598;2023-09-12T11:12:45;22.90;99.90
56256;DHT22;57229;51.432;-2.598;2023-09-12T11:15:11;23.00;99.90
56256;DHT22;57229;51.432;-2.598;2023-09-12T11:17:47;22.70;99.90
56256;DHT22;57229;51.432;-2.598;2023-09-12T11:20:14;22.50;99.90
56256;DHT22;57229;51.432;-2.598;2023-09-12T11:22:46;22.70;99.90
56256;DHT22;57229;51.432;-2.598;2023-09-12T11:25:21;22.90;99.90
56256;DHT22;57229;51.432;-2.598;2023-09-12T11:30:20;23.30;99.00
56256;DHT22;57229;51.432;-2.598;2023-09-12T11:32:48;23.50;99.90
56256;DHT22;57229;51.432;-2.598;2023-09-12T11:35:16;23.30;99.60
56256;DHT22;57229;51.432;-2.598;2023-09-12T11:37:54;23.00;99.70
56256;DHT22;57229;51.432;-2.598;2023-09-12T11:40:42;22.90;99.90
56256;DHT22;57229;51.432;-2.598;2023-09-12T11:43:24;22.80;99.90
56256;DHT22;57229;51.432;-2.598;2023-09-12T11:45:50;22.80;99.90
56256;DHT22;57229;51.432;-2.598;2023-09-12T11:48:17;22.60;99.90
56256;DHT22;57229;51.432;-2.598;2023-09-12T11:50:49;22.50;99.90
56256;DHT22;57229;51.432;-2.598;2023-09-12T11:53:20;22.50;99.90
56256;DHT22;57229;51.432;-2.598;2023-09-12T11:55:47;22.60;99.90
56256;DHT22;57229;51.432;-2.598;2023-09-12T11:58:18;22.60;99.90
56256;DHT22;57229;51.432;-2.598;2023-09-12T12:00:58;22.60;99.90
56256;DHT22;57229;51.432;-2.598;2023-09-12T12:03:25;22.80;99.90
56256;DHT22;57229;51.432;-2.598;2023-09-12T12:05:51;23.00;99.90
56256;DHT22;57229;51.432;-2.598;2023-09-12T12:08:18;23.20;99.30
56256;DHT22;57229;51.432;-2.598;2023-09-12T12:10:48;23.40;99.50
56256;DHT22;57229;51.432;-2.598;2023-09-12T12:13:18;23.80;98.70
56256;DHT22;57229;51.432;-2.598;2023-09-12T12:15:44;24.20;97.90
56256;DHT22;57229;51.432;-2.598;2023-09-12T12:18:10;24.60;96.50
56256;DHT22;57229;51.432;-2.598;2023-09-12T12:20:36;24.30;96.70
56256;DHT22;57229;51.432;-2.598;2023-09-12T12:23:01;24.00;97.80
56256;DHT22;57229;51.432;-2.598;2023-09-12T12:25:32;23.90;97.80
56256;DHT22;57229;51.432;-2.598;2023-09-12T12:27:59;24.10;97.90
56256;DHT22;57229;51.432;-2.598;2023-09-12T12:30:25;24.50;97.00
56256;DHT22;57229;51.432;-2.598;2023-09-12T12:32:51;24.70;96.30
56256;DHT22;57229;51.432;-2.598;2023-09-12T12:35:18;25.50;95.90
56256;DHT22;57229;51.432;-2.598;2023-09-12T12:37:44;25.90;94.30
56256;DHT22;57229;51.432;-2.598;2023-09-12T12:40:13;25.80;94.10
56256;DHT22;57229;51.432;-2.598;2023-09-12T12:42:40;25.50;94.20
56256;DHT22;57229;51.432;-2.598;2023-09-12T12:45:18;25.60;94.60
56256;DHT22;57229;51.432;-2.598;2023-09-12T12:47:44;25.60;94.00
56256;DHT22;57229;51.432;-2.598;2023-09-12T12:50:15;25.60;92.80
56256;DHT22;57229;51.432;-2.598;2023-09-12T12:52:41;25.50;92.70
56256;DHT22;57229;51.432;-2.598;2023-09-12T12:55:09;25.60;93.50
56256;DHT22;57229;51.432;-2.598;2023-09-12T12:57:39;25.70;92.90
56256;DHT22;57229;51.432;-2.598;2023-09-12T13:00:15;25.70;92.90
56256;DHT22;57229;51.432;-2.598;2023-09-12T13:02:42;25.30;92.70
56256;DHT22;57229;51.432;-2.598;2023-09-12T13:05:26;24.80;93.60
56256;DHT22;57229;51.432;-2.598;2023-09-12T13:07:52;24.40;94.30
56256;DHT22;57229;51.432;-2.598;2023-09-12T13:10:19;24.20;94.90
56256;DHT22;57229;51.432;-2.598;2023-09-12T13:12:44;24.20;94.00
56256;DHT22;57229;51.432;-2.598;2023-09-12T13:15:11;24.30;93.90
56256;DHT22;57229;51.432;-2.598;2023-09-12T13:17:37;24.60;93.90
56256;DHT22;57229;51.432;-2.598;2023-09-12T13:20:03;24.60;93.90
56256;DHT22;57229;51.432;-2.598;2023-09-12T13:22:29;24.40;93.70
56256;DHT22;57229;51.432;-2.598;2023-09-12T13:24:54;24.40;93.30
56256;DHT22;57229;51.432;-2.598;2023-09-12T13:27:20;24.00;94.10
56256;DHT22;57229;51.432;-2.598;2023-09-12T13:29:46;23.80;94.50
56256;DHT22;57229;51.432;-2.598;2023-09-12T13:32:13;23.80;94.80
56256;DHT22;57229;51.432;-2.598;2023-09-12T13:34:40;23.80;94.70
56256;DHT22;57229;51.432;-2.598;2023-09-12T13:37:06;23.80;94.20
56256;DHT22;57229;51.432;-2.598;2023-09-12T13:39:32;23.80;94.40
56256;DHT22;57229;51.432;-2.598;2023-09-12T13:41:57;23.80;94.50
56256;DHT22;57229;51.432;-2.598;2023-09-12T13:44:25;23.80;95.50
56256;DHT22;57229;51.432;-2.598;2023-09-12T13:46:51;23.70;95.30
56256;DHT22;57229;51.432;-2.598;2023-09-12T13:49:16;23.60;95.20
56256;DHT22;57229;51.432;-2.598;2023-09-12T13:51:42;23.30;95.50
56256;DHT22;57229;51.432;-2.598;2023-09-12T13:54:07;23.20;96.20
56256;DHT22;57229;51.432;-2.598;2023-09-12T13:56:40;23.20;96.40
56256;DHT22;57229;51.432;-2.598;2023-09-12T13:59:05;23.10;96.70
56256;DHT22;57229;51.432;-2.598;2023-09-12T14:01:32;23.00;96.80
56256;DHT22;57229;51.432;-2.598;2023-09-12T14:03:57;23.00;96.20
56256;DHT22;57229;51.432;-2.598;2023-09-12T14:06:23;22.90;96.50
56256;DHT22;57229;51.432;-2.598;2023-09-12T14:08:52;22.90;96.90
56256;DHT22;57229;51.432;-2.598;2023-09-12T14:11:18;23.00;96.40
56256;DHT22;57229;51.432;-2.598;2023-09-12T14:13:43;23.00;96.40
56256;DHT22;57229;51.432;-2.598;2023-09-12T14:16:09;23.10;96.00
56256;DHT22;57229;51.432;-2.598;2023-09-12T14:18:35;23.00;96.00
56256;DHT22;57229;51.432;-2.598;2023-09-12T14:21:00;23.00;96.60
56256;DHT22;57229;51.432;-2.598;2023-09-12T14:23:26;23.00;96.30
56256;DHT22;57229;51.432;-2.598;2023-09-12T14:25:51;23.10;96.40
56256;DHT22;57229;51.432;-2.598;2023-09-12T14:28:17;23.00;95.90
56256;DHT22;57229;51.432;-2.598;2023-09-12T14:30:43;23.00;96.30
56256;DHT22;57229;51.432;-2.598;2023-09-12T14:33:11;22.90;96.00
56256;DHT22;57229;51.432;-2.598;2023-09-12T14:35:37;22.80;96.10
56256;DHT22;57229;51.432;-2.598;2023-09-12T14:38:03;22.60;95.80
56256;DHT22;57229;51.432;-2.598;2023-09-12T14:40:29;22.40;96.20
56256;DHT22;57229;51.432;-2.598;2023-09-12T14:42:55;22.30;96.70
56256;DHT22;57229;51.432;-2.598;2023-09-12T14:45:21;22.30;96.70
56256;DHT22;57229;51.432;-2.598;2023-09-12T14:47:47;22.20;96.90
56256;DHT22;57229;51.432;-2.598;2023-09-12T14:50:12;22.10;97.80
56256;DHT22;57229;51.432;-2.598;2023-09-12T14:52:38;22.00;98.40
56256;DHT22;57229;51.432;-2.598;2023-09-12T14:55:05;21.80;99.00
56256;DHT22;57229;51.432;-2.598;2023-09-12T14:57:32;21.80;99.90
56256;DHT22;57229;51.432;-2.598;2023-09-12T14:59:58;22.00;99.90
56256;DHT22;57229;51.432;-2.598;2023-09-12T15:02:27;22.10;99.90
56256;DHT22;57229;51.432;-2.598;2023-09-12T15:05:00;22.20;99.90
56256;DHT22;57229;51.432;-2.598;2023-09-12T15:07:26;22.40;99.90
56256;DHT22;57229;51.432;-2.598;2023-09-12T15:09:52;22.40;99.90
56256;DHT22;57229;51.432;-2.598;2023-09-12T15:12:18;22.50;99.70
56256;DHT22;57229;51.432;-2.598;2023-09-12T15:14:43;22.40;98.50
56256;DHT22;57229;51.432;-2.598;2023-09-12T15:17:09;22.40;99.20
56256;DHT22;57229;51.432;-2.598;2023-09-12T15:19:34;22.30;99.60
56256;DHT22;57229;51.432;-2.598;2023-09-12T15:22:00;22.20;99.30
56256;DHT22;57229;51.432;-2.598;2023-09-12T15:24:25;22.00;98.60